Weather at Bora Bora Airport

Public forecast

Using degrees Celsius for public forecast. Weather courtesy of forecast.io.

Closest aviation weather report (METAR) to Bora Bora Airport

Closest report is Faa'a International Airport, 140.0 nm (259.2 km) ESE. Retrieved 2021/10/19 22:30 UTC (57 minutes ago):

NTAA 192230Z 06010KT 9999 FEW023 SCT056 BKN260 30/22 Q1016 WS ALL RWY NOSIG

Closest aviation forecast (TAF) to Bora Bora Airport

Closest forecast is Faa'a International Airport, 140.0 nm (259.2 km) ESE. Retrieved 2021/10/19 18:13 UTC (5 hours ago):

TAF NTAA 191700Z 1918/2024 05014KT 9999 FEW020TCU SCT045 PROB40 TEMPO 1923/2024 05015G25KT 3000 SHRA FEW015CB SCT017 BKN045 PROB30 TEMPO 2008/2024 35020G35KT 1000 TSRA FEW011 SCT014CB BKN040